createdAt,value
2018-06-10T00:15:29.983Z,19.90
2018-06-10T00:17:59.622Z,19.90
2018-06-10T00:22:58.480Z,19.90
2018-06-10T00:27:57.296Z,20.00
2018-06-10T00:32:56.991Z,20.00
2018-06-10T00:37:55.820Z,20.00
2018-06-10T00:40:25.482Z,20.00
2018-06-10T00:42:55.220Z,20.00
2018-06-10T00:47:54.066Z,20.00
2018-06-10T00:55:22.056Z,19.90
2018-06-10T01:00:20.910Z,19.90
2018-06-10T01:07:48.910Z,19.90
2018-06-10T01:10:18.560Z,19.80
2018-06-10T01:35:11.321Z,19.60
2018-06-10T01:40:10.162Z,19.60
2018-06-10T01:45:09.035Z,19.50
2018-06-10T01:50:07.932Z,19.50
2018-06-10T01:52:37.563Z,19.50
2018-06-10T02:02:42.982Z,19.30
2018-06-10T02:10:17.915Z,19.30
2018-06-10T02:12:47.562Z,19.20
2018-06-10T02:15:19.248Z,19.10
2018-06-10T02:17:49.157Z,19.10
2018-06-10T02:20:18.784Z,19.10
2018-06-10T02:27:47.736Z,18.90
2018-06-10T02:32:49.537Z,18.80
2018-06-10T02:37:56.870Z,18.80
2018-06-10T02:45:24.911Z,18.70
2018-06-10T02:50:23.710Z,18.90
2018-06-10T02:52:53.361Z,18.90
2018-06-10T02:55:23.028Z,19.10
2018-06-10T02:57:52.639Z,19.20
2018-06-10T03:00:23.280Z,19.20
2018-06-10T03:05:22.113Z,19.10
2018-06-10T03:10:21.037Z,19.10
2018-06-10T03:17:49.098Z,19.00
2018-06-10T03:20:18.711Z,19.00
2018-06-10T03:27:46.750Z,19.10
2018-06-10T03:30:16.394Z,19.10
2018-06-10T03:45:11.982Z,19.30
2018-06-10T03:50:10.820Z,19.40
2018-06-10T03:57:38.838Z,19.40
2018-06-10T04:00:08.962Z,19.40
2018-06-10T04:02:38.580Z,19.40
2018-06-10T04:05:08.228Z,19.50
2018-06-10T04:07:37.858Z,19.20
2018-06-10T04:10:07.489Z,19.30
2018-06-10T04:15:06.905Z,19.40
2018-06-10T04:27:33.468Z,19.50
2018-06-10T04:32:32.325Z,19.50
2018-06-10T04:35:01.943Z,19.50
2018-06-10T04:49:59.580Z,19.30
2018-06-10T04:52:29.261Z,19.30
2018-06-10T04:59:57.204Z,19.40
2018-06-10T05:14:52.845Z,19.50
2018-06-10T05:22:20.822Z,19.70
2018-06-10T05:27:19.612Z,20.00
2018-06-10T05:29:49.254Z,20.10
2018-06-10T05:37:17.240Z,20.20
2018-06-10T05:49:44.296Z,19.90
2018-06-10T05:57:12.353Z,20.00
2018-06-10T06:04:40.671Z,20.20
2018-06-10T06:07:10.278Z,20.10
2018-06-10T06:12:09.098Z,20.00
2018-06-10T06:19:37.168Z,20.00
2018-06-10T06:27:05.180Z,19.90
2018-06-10T06:37:02.418Z,20.00
2018-06-10T06:42:01.266Z,20.00
2018-06-10T06:44:31.776Z,19.90
2018-06-10T06:47:01.786Z,19.80
2018-06-10T06:52:00.598Z,19.70
2018-06-10T06:54:30.256Z,19.70
2018-06-10T07:01:58.256Z,19.50
2018-06-10T07:09:26.466Z,19.50
2018-06-10T07:14:25.296Z,19.60
2018-06-10T07:16:54.934Z,19.70
2018-06-10T07:19:24.578Z,19.80
2018-06-10T07:24:23.584Z,19.80
2018-06-10T07:29:22.513Z,19.70
2018-06-10T07:31:52.552Z,19.70
2018-06-10T07:34:22.172Z,19.80
2018-06-10T07:44:20.814Z,20.10
2018-06-10T08:01:46.284Z,20.30
2018-06-10T08:04:15.929Z,20.30
2018-06-10T08:06:45.584Z,20.30
2018-06-10T08:09:15.226Z,20.30
2018-06-10T08:14:14.162Z,20.20
2018-06-10T08:19:13.016Z,19.90
2018-06-10T08:41:37.568Z,19.30
2018-06-10T08:44:07.262Z,19.30
2018-06-10T08:54:04.618Z,19.40
2018-06-10T08:56:34.270Z,19.30
2018-06-10T09:11:30.344Z,19.30
2018-06-10T09:41:22.362Z,20.10
2018-06-10T09:43:52.002Z,20.30
2018-06-10T09:51:20.401Z,20.40
2018-06-10T09:53:50.090Z,20.40
2018-06-10T10:03:47.306Z,20.50
2018-06-10T10:08:46.153Z,20.50
2018-06-10T10:13:45.087Z,20.50
2018-06-10T10:18:44.012Z,20.60
2018-06-10T10:26:12.087Z,20.50
2018-06-10T10:33:40.230Z,20.80
2018-06-10T10:36:09.870Z,21.00
2018-06-10T10:41:09.456Z,21.20
2018-06-10T11:01:03.751Z,22.20
2018-06-10T11:06:02.608Z,22.60
2018-06-10T11:08:32.238Z,22.70
2018-06-10T11:11:01.901Z,22.80
2018-06-10T11:13:31.556Z,22.80
2018-06-10T11:16:01.200Z,22.60
2018-06-10T11:21:00.081Z,22.40
2018-06-10T11:23:29.714Z,22.20
2018-06-10T11:25:59.338Z,22.00
2018-06-10T11:30:58.169Z,22.30
2018-06-10T11:35:58.070Z,22.60
2018-06-10T11:38:27.724Z,22.70
2018-06-10T11:43:26.596Z,23.60
2018-06-10T11:45:56.249Z,23.70
2018-06-10T11:50:55.034Z,23.30
2018-06-10T11:55:53.863Z,22.90
2018-06-10T12:05:51.975Z,22.80
2018-06-10T12:15:51.283Z,23.70
2018-06-10T12:18:21.025Z,23.40
2018-06-10T12:23:19.834Z,23.50
2018-06-10T12:28:18.663Z,23.20
2018-06-10T12:38:15.949Z,22.90
2018-06-10T12:40:45.578Z,22.70
2018-06-10T12:43:15.263Z,22.90
2018-06-10T12:48:14.087Z,23.80
2018-06-10T13:03:10.279Z,27.30
2018-06-10T13:08:09.164Z,28.70
2018-06-10T13:18:07.722Z,28.50
2018-06-10T13:35:33.288Z,28.20
2018-06-10T13:40:32.255Z,28.90
2018-06-10T13:45:32.388Z,28.50
2018-06-10T13:48:02.050Z,27.20
2018-06-10T13:55:30.162Z,26.60
2018-06-10T14:00:29.048Z,28.80
2018-06-10T14:02:58.758Z,29.70
2018-06-10T14:07:57.580Z,30.00
2018-06-10T14:12:56.389Z,29.80
2018-06-10T14:15:26.035Z,28.60
2018-06-10T14:17:55.694Z,27.00
2018-06-10T14:20:25.364Z,26.30
2018-06-10T14:22:54.973Z,26.10
2018-06-10T14:27:53.828Z,27.00
2018-06-10T14:35:21.883Z,28.10
2018-06-10T14:37:51.558Z,28.10
2018-06-10T14:40:21.164Z,27.80
2018-06-10T14:47:49.229Z,25.70
2018-06-10T14:57:46.509Z,24.60
2018-06-10T15:00:16.205Z,24.30
2018-06-10T15:05:15.050Z,24.10
2018-06-10T15:07:44.744Z,23.70
2018-06-10T15:10:14.400Z,23.50
2018-06-10T15:15:13.342Z,23.90
2018-06-10T15:17:42.958Z,24.40
2018-06-10T15:25:11.144Z,23.60
2018-06-10T15:27:40.776Z,23.90
2018-06-10T15:32:39.714Z,24.10
2018-06-10T15:35:09.369Z,23.90
2018-06-10T15:40:08.280Z,23.50
2018-06-10T15:47:36.975Z,23.80
2018-06-10T15:50:06.621Z,23.60
2018-06-10T16:05:03.054Z,23.10
2018-06-10T16:10:02.855Z,22.50
2018-06-10T16:17:30.994Z,22.00
2018-06-10T16:22:29.911Z,22.00
2018-06-10T16:27:28.753Z,21.90
2018-06-10T16:29:58.506Z,21.90
2018-06-10T16:32:28.180Z,21.70
2018-06-10T16:34:57.836Z,21.60
2018-06-10T16:39:56.734Z,21.30
2018-06-10T16:47:24.794Z,21.20
2018-06-10T16:54:52.986Z,20.90
2018-06-10T17:02:21.040Z,21.10
2018-06-10T17:09:49.474Z,20.50
2018-06-10T17:12:20.342Z,20.40
2018-06-10T17:17:19.428Z,20.60
2018-06-10T17:19:49.119Z,20.80
2018-06-10T17:22:18.777Z,20.80
2018-06-10T17:24:48.464Z,20.40
2018-06-10T17:29:47.463Z,20.50
2018-06-10T17:37:15.563Z,19.80
2018-06-10T17:39:45.271Z,20.20
2018-06-10T17:44:44.153Z,20.20
2018-06-10T17:54:41.487Z,20.20
2018-06-10T17:57:11.176Z,20.10
2018-06-10T18:02:10.065Z,19.70
2018-06-10T18:04:39.773Z,19.70
2018-06-10T18:07:10.249Z,19.60
2018-06-10T18:19:37.141Z,19.70
2018-06-10T18:37:02.002Z,19.30
2018-06-10T18:39:31.645Z,19.60
2018-06-10T19:09:22.488Z,18.90
2018-06-10T19:21:48.900Z,19.30
2018-06-10T19:34:15.385Z,19.00
2018-06-10T19:44:13.921Z,19.00
2018-06-10T19:46:43.642Z,19.00
2018-06-10T19:51:42.586Z,18.90
2018-06-10T19:54:12.355Z,18.70
2018-06-10T19:56:41.996Z,18.80
2018-06-10T20:04:10.002Z,19.00
2018-06-10T20:09:08.937Z,19.00
2018-06-10T20:11:38.578Z,18.90
2018-06-10T20:21:35.898Z,18.80
2018-06-10T20:29:03.911Z,19.00
2018-06-10T20:34:02.760Z,19.00
2018-06-10T20:41:30.884Z,19.00
2018-06-10T20:46:30.611Z,18.90
2018-06-10T20:51:29.499Z,19.00
2018-06-10T20:56:28.409Z,18.70
2018-06-10T21:01:28.121Z,18.40
2018-06-10T21:08:56.152Z,18.40
2018-06-10T21:18:53.328Z,18.40
2018-06-10T21:23:52.217Z,18.30
2018-06-10T21:26:21.955Z,18.20
2018-06-10T21:31:21.027Z,18.20
2018-06-10T21:36:19.857Z,18.20
2018-06-10T21:46:17.319Z,17.90
2018-06-10T21:58:43.685Z,17.70
2018-06-10T22:11:10.091Z,17.40
2018-06-10T22:21:07.340Z,17.40
2018-06-10T22:31:04.639Z,16.80
2018-06-10T22:41:04.239Z,17.00
2018-06-10T22:43:33.901Z,17.10
2018-06-10T22:46:03.552Z,17.30
2018-06-10T22:51:02.353Z,17.20
2018-06-10T23:11:28.168Z,17.10
2018-06-10T23:26:23.759Z,16.70
2018-06-10T23:28:53.394Z,16.80
2018-06-10T23:33:53.319Z,16.80
2018-06-10T23:38:52.183Z,16.60
2018-06-10T23:46:20.230Z,16.70
2018-06-10T23:51:19.022Z,16.80
2018-06-10T23:58:47.001Z,16.50
